Time;durP1;ratioP1;P1;durP2;ratioP2;P2;SDS_P1;SDS_P2;PMS_P1;PMS_P2;Temp;Humidity;BMP_temperature;BMP_pressure;BME280_temperature;BME280_humidity;BME280_pressure;Samples;Min_cycle;Max_cycle;Signal;HPM_P1;HPM_P2
2022/11/28 00:00:12;;;;;;;;;;;7.40;99.90;;;;;;5073499;28;20003;-69
2022/11/28 00:02:37;;;;;;;;;;;7.40;99.90;;;;;;5073727;28;20373;-68
2022/11/28 00:05:03;;;;;;;;;;;7.40;99.90;;;;;;5073460;28;20346;-68
2022/11/28 00:07:28;;;;;;;;;;;7.40;99.90;;;;;;5073388;28;19970;-68
2022/11/28 00:09:54;;;;;;;;;;;7.30;99.90;;;;;;5073644;28;19960;-68
2022/11/28 00:12:19;;;;;;;;;;;7.30;99.90;;;;;;5073243;28;19913;-68
2022/11/28 00:14:45;;;;;;;;;;;7.20;99.90;;;;;;5055394;28;19908;-68
2022/11/28 00:17:10;;;;;;;;;;;7.20;99.90;;;;;;5073583;28;19909;-68
2022/11/28 00:19:36;;;;;;;;;;;7.10;99.90;;;;;;5073262;28;20336;-68
2022/11/28 00:22:02;;;;;;;;;;;7.10;99.90;;;;;;5073296;28;20003;-68
2022/11/28 00:24:27;;;;;;;;;;;7.00;99.90;;;;;;5073486;28;19955;-68
2022/11/28 00:26:52;;;;;;;;;;;7.10;99.90;;;;;;5073482;28;20293;-68
2022/11/28 00:29:18;;;;;;;;;;;7.00;99.90;;;;;;5073410;28;19948;-68
2022/11/28 00:31:43;;;;;;;;;;;7.00;99.90;;;;;;5073386;28;19962;-68
2022/11/28 00:34:11;;;;;;;;;;;7.00;99.90;;;;;;5073656;28;19908;-68
2022/11/28 00:36:37;;;;;;;;;;;7.10;99.90;;;;;;5073087;28;19909;-68
2022/11/28 00:39:03;;;;;;;;;;;7.00;99.90;;;;;;5073343;28;20358;-68
2022/11/28 00:41:29;;;;;;;;;;;7.00;99.90;;;;;;5073044;28;19909;-68
2022/11/28 00:43:55;;;;;;;;;;;7.00;99.90;;;;;;5073295;28;20289;-68
2022/11/28 00:46:22;;;;;;;;;;;6.90;99.90;;;;;;5073115;28;19909;-68
2022/11/28 00:48:48;;;;;;;;;;;7.00;99.90;;;;;;5073263;28;19908;-68
2022/11/28 00:51:15;;;;;;;;;;;7.00;99.90;;;;;;5072893;28;19960;-68
2022/11/28 00:53:42;;;;;;;;;;;7.00;99.90;;;;;;5073201;28;20361;-68
2022/11/28 00:56:09;;;;;;;;;;;6.90;99.90;;;;;;5072997;28;19916;-68
2022/11/28 00:58:35;;;;;;;;;;;6.90;99.90;;;;;;5072945;28;19913;-68
2022/11/28 01:01:18;;;;;;;;;;;7.00;99.90;;;;;;5076739;28;19908;-68
2022/11/28 01:03:44;;;;;;;;;;;7.00;99.90;;;;;;5076568;28;19908;-68
2022/11/28 01:06:10;;;;;;;;;;;7.00;99.90;;;;;;5076743;28;19915;-68
2022/11/28 01:08:36;;;;;;;;;;;6.90;99.90;;;;;;5076686;28;19909;-68
2022/11/28 01:11:02;;;;;;;;;;;7.00;99.90;;;;;;5058495;28;19908;-68
2022/11/28 01:13:27;;;;;;;;;;;7.00;99.90;;;;;;5076251;28;20014;-68
2022/11/28 01:15:53;;;;;;;;;;;7.00;99.90;;;;;;5076311;28;19909;-68
2022/11/28 01:18:18;;;;;;;;;;;7.00;99.90;;;;;;5076475;28;20020;-68
2022/11/28 01:20:44;;;;;;;;;;;7.00;99.90;;;;;;5076491;28;20377;-68
2022/11/28 01:23:09;;;;;;;;;;;6.90;99.90;;;;;;5076157;28;20007;-68
2022/11/28 01:25:35;;;;;;;;;;;7.00;99.90;;;;;;5076126;28;20405;-68
2022/11/28 01:28:00;;;;;;;;;;;6.90;99.90;;;;;;5076325;28;19908;-68
2022/11/28 01:30:26;;;;;;;;;;;6.90;99.90;;;;;;5076376;28;19936;-68
2022/11/28 01:32:51;;;;;;;;;;;6.90;99.90;;;;;;5075923;28;19919;-68
2022/11/28 01:35:17;;;;;;;;;;;6.90;99.90;;;;;;5075984;28;19908;-68
2022/11/28 01:37:42;;;;;;;;;;;6.80;99.90;;;;;;5058313;28;19908;-68
2022/11/28 01:40:09;;;;;;;;;;;6.90;99.90;;;;;;5075817;28;19955;-68
2022/11/28 01:42:35;;;;;;;;;;;6.80;99.90;;;;;;5075797;28;19912;-68
2022/11/28 01:45:04;;;;;;;;;;;6.80;99.90;;;;;;5075750;28;19908;-68
2022/11/28 01:47:29;;;;;;;;;;;6.80;99.90;;;;;;5075973;28;20278;-67
2022/11/28 01:49:55;;;;;;;;;;;6.70;99.90;;;;;;5075645;28;19920;-68
2022/11/28 01:52:21;;;;;;;;;;;6.70;99.90;;;;;;5075340;28;19982;-67
2022/11/28 01:54:49;;;;;;;;;;;6.70;99.90;;;;;;5075552;28;19916;-67
2022/11/28 01:57:16;;;;;;;;;;;6.70;99.90;;;;;;5075792;28;20058;-67
2022/11/28 01:59:46;;;;;;;;;;;6.70;99.90;;;;;;5075742;28;19908;-67
2022/11/28 02:02:15;;;;;;;;;;;6.70;99.90;;;;;;5057886;28;19916;-68
2022/11/28 02:04:41;;;;;;;;;;;6.70;99.90;;;;;;5075364;28;19915;-67
2022/11/28 02:07:06;;;;;;;;;;;6.70;99.90;;;;;;5075311;28;19908;-67
2022/11/28 02:09:32;;;;;;;;;;;6.70;99.90;;;;;;5057393;28;19915;-68
2022/11/28 02:12:17;;;;;;;;;;;6.70;99.90;;;;;;5057249;28;19919;-68
2022/11/28 02:14:59;;;;;;;;;;;6.80;99.90;;;;;;5075092;28;19916;-67
2022/11/28 02:17:45;;;;;;;;;;;6.80;99.90;;;;;;5075136;28;19967;-67
2022/11/28 02:23:22;;;;;;;;;;;6.80;99.90;;;;;;5091395;27;19919;-67
2022/11/28 02:26:02;;;;;;;;;;;6.80;99.90;;;;;;5091295;28;19913;-66
2022/11/28 02:31:44;;;;;;;;;;;6.80;99.90;;;;;;5091288;27;19912;-68
2022/11/28 02:34:13;;;;;;;;;;;6.80;99.90;;;;;;5091164;28;20430;-67
2022/11/28 02:36:49;;;;;;;;;;;6.80;99.90;;;;;;5091411;28;19908;-67
2022/11/28 02:39:22;;;;;;;;;;;6.80;99.90;;;;;;5091375;28;19909;-67
2022/11/28 02:42:07;;;;;;;;;;;6.80;99.90;;;;;;5091003;28;19974;-67
2022/11/28 02:44:40;;;;;;;;;;;6.80;99.90;;;;;;5118432;28;20289;-67
2022/11/28 02:47:14;;;;;;;;;;;6.80;99.90;;;;;;5091249;28;20285;-67
2022/11/28 02:49:45;;;;;;;;;;;6.80;99.90;;;;;;5090852;28;19913;-67
2022/11/28 02:52:14;;;;;;;;;;;6.90;99.90;;;;;;5091123;28;19916;-68
2022/11/28 02:54:40;;;;;;;;;;;6.80;99.90;;;;;;5090797;28;19909;-67
2022/11/28 02:57:06;;;;;;;;;;;6.90;99.90;;;;;;5091012;28;20338;-67
2022/11/28 02:59:44;;;;;;;;;;;6.80;99.90;;;;;;5090964;28;20381;-67
2022/11/28 03:02:13;;;;;;;;;;;6.80;99.90;;;;;;5090922;28;19908;-68
2022/11/28 03:04:58;;;;;;;;;;;6.90;99.90;;;;;;5090900;28;19908;-67
2022/11/28 03:07:43;;;;;;;;;;;6.80;99.90;;;;;;5090667;28;19915;-67
2022/11/28 03:10:29;;;;;;;;;;;6.80;99.90;;;;;;5090480;28;19912;-67
2022/11/28 03:13:01;;;;;;;;;;;6.80;99.90;;;;;;5090509;28;19908;-67
2022/11/28 03:15:31;;;;;;;;;;;6.80;99.90;;;;;;5090649;28;20365;-68
2022/11/28 03:18:03;;;;;;;;;;;6.70;99.90;;;;;;5090394;28;19932;-68
2022/11/28 03:20:33;;;;;;;;;;;6.70;99.90;;;;;;5090289;28;19944;-67
2022/11/28 03:23:16;;;;;;;;;;;6.60;99.90;;;;;;5090537;28;19930;-67
2022/11/28 03:25:48;;;;;;;;;;;6.60;99.90;;;;;;5090471;28;19961;-67
2022/11/28 03:28:31;;;;;;;;;;;6.60;99.90;;;;;;5090353;28;19909;-67
2022/11/28 03:31:07;;;;;;;;;;;6.60;99.90;;;;;;5106778;28;20343;-67
2022/11/28 03:33:34;;;;;;;;;;;6.60;99.90;;;;;;5110684;28;19914;-67
2022/11/28 03:36:03;;;;;;;;;;;6.50;99.90;;;;;;5110396;28;19915;-67
2022/11/28 03:38:34;;;;;;;;;;;6.60;99.90;;;;;;5110318;28;20434;-67
2022/11/28 03:41:02;;;;;;;;;;;6.60;99.90;;;;;;5106587;28;19999;-67
2022/11/28 03:43:31;;;;;;;;;;;6.60;99.90;;;;;;5096879;28;19908;-67
2022/11/28 03:46:00;;;;;;;;;;;6.60;99.90;;;;;;5096604;28;20285;-68
2022/11/28 03:48:30;;;;;;;;;;;6.70;99.90;;;;;;5096787;28;19912;-67
2022/11/28 03:50:58;;;;;;;;;;;6.70;99.90;;;;;;5096697;28;19967;-68
2022/11/28 03:53:26;;;;;;;;;;;6.80;99.90;;;;;;5096393;28;20010;-67
2022/11/28 03:55:58;;;;;;;;;;;6.80;99.90;;;;;;5096411;28;19912;-68
2022/11/28 03:58:43;;;;;;;;;;;6.80;99.90;;;;;;5096370;28;20013;-66
2022/11/28 04:01:27;;;;;;;;;;;6.80;99.90;;;;;;5096528;28;20423;-66
2022/11/28 04:03:58;;;;;;;;;;;6.80;99.90;;;;;;5096537;28;19957;-66
2022/11/28 04:06:26;;;;;;;;;;;6.90;99.90;;;;;;5096468;28;20404;-67
2022/11/28 04:08:57;;;;;;;;;;;6.90;99.90;;;;;;5096255;28;20370;-67
2022/11/28 04:11:26;;;;;;;;;;;6.90;99.90;;;;;;5096377;28;19912;-67
2022/11/28 04:14:11;;;;;;;;;;;6.90;99.90;;;;;;5096096;28;19915;-67
2022/11/28 04:16:39;;;;;;;;;;;7.00;99.90;;;;;;5095857;28;20377;-67
2022/11/28 04:19:15;;;;;;;;;;;7.10;99.90;;;;;;5096201;28;19908;-67
2022/11/28 04:21:45;;;;;;;;;;;7.00;99.90;;;;;;5095882;28;19908;-67
2022/11/28 04:24:13;;;;;;;;;;;7.10;99.90;;;;;;5096118;28;20377;-67
2022/11/28 04:26:42;;;;;;;;;;;7.10;99.90;;;;;;5096058;28;20277;-67
2022/11/28 04:29:09;;;;;;;;;;;7.10;99.90;;;;;;5095724;28;19934;-67
2022/11/28 04:31:36;;;;;;;;;;;7.10;99.90;;;;;;5096015;28;20297;-67
2022/11/28 04:34:04;;;;;;;;;;;7.10;99.90;;;;;;5095655;28;19916;-66
2022/11/28 04:36:31;;;;;;;;;;;7.10;99.90;;;;;;5095920;28;19944;-66
2022/11/28 04:38:57;;;;;;;;;;;7.10;99.90;;;;;;5095578;28;19912;-67
2022/11/28 04:41:25;;;;;;;;;;;7.10;99.90;;;;;;5095820;28;20335;-67
2022/11/28 04:43:53;;;;;;;;;;;7.10;99.90;;;;;;5095506;28;19908;-67
2022/11/28 04:46:23;;;;;;;;;;;7.10;99.90;;;;;;5095724;28;19917;-67
2022/11/28 04:48:49;;;;;;;;;;;7.20;99.90;;;;;;5077224;28;19914;-67
2022/11/28 04:51:17;;;;;;;;;;;7.20;99.90;;;;;;5095537;28;19912;-67
2022/11/28 04:53:46;;;;;;;;;;;7.10;99.90;;;;;;5094276;28;19916;-67
2022/11/28 04:56:16;;;;;;;;;;;7.10;99.90;;;;;;5095206;28;19909;-67
2022/11/28 04:58:43;;;;;;;;;;;7.10;99.90;;;;;;5095187;28;20016;-67
2022/11/28 05:01:10;;;;;;;;;;;7.10;99.90;;;;;;5076999;28;19908;-67
2022/11/28 05:03:37;;;;;;;;;;;7.10;99.90;;;;;;5095136;28;19908;-67
2022/11/28 05:06:02;;;;;;;;;;;7.10;99.90;;;;;;5095085;28;19908;-67
2022/11/28 05:08:28;;;;;;;;;;;7.10;99.90;;;;;;5095278;28;20310;-67
2022/11/28 05:10:53;;;;;;;;;;;7.00;99.90;;;;;;5076740;28;19961;-67
2022/11/28 05:13:19;;;;;;;;;;;7.00;99.90;;;;;;5094910;28;19931;-67
2022/11/28 05:15:44;;;;;;;;;;;7.00;99.90;;;;;;5094900;28;19962;-67
2022/11/28 05:18:10;;;;;;;;;;;7.00;99.90;;;;;;5095089;28;20371;-67
2022/11/28 05:20:36;;;;;;;;;;;6.90;99.90;;;;;;5095018;28;19915;-67
2022/11/28 05:23:01;;;;;;;;;;;6.90;99.90;;;;;;5094954;28;19908;-67
2022/11/28 05:25:27;;;;;;;;;;;6.90;99.90;;;;;;5094681;28;20019;-67
2022/11/28 05:27:52;;;;;;;;;;;6.90;99.90;;;;;;5094887;28;19965;-67
2022/11/28 05:30:18;;;;;;;;;;;6.90;99.90;;;;;;5094353;28;19967;-67
2022/11/28 05:32:43;;;;;;;;;;;6.90;99.90;;;;;;5094821;28;19912;-67
2022/11/28 05:35:09;;;;;;;;;;;6.90;99.90;;;;;;5094752;28;19909;-67
2022/11/28 05:37:34;;;;;;;;;;;6.90;99.90;;;;;;5094501;28;19957;-67
2022/11/28 05:39:59;;;;;;;;;;;6.90;99.90;;;;;;5094690;28;19915;-67
2022/11/28 05:42:27;;;;;;;;;;;6.90;99.90;;;;;;5094413;28;20006;-67
2022/11/28 05:44:52;;;;;;;;;;;6.90;99.90;;;;;;5094591;28;19943;-66
2022/11/28 05:47:18;;;;;;;;;;;6.90;99.90;;;;;;5094307;28;20374;-67
2022/11/28 05:49:45;;;;;;;;;;;6.90;99.90;;;;;;5094467;28;19999;-67
2022/11/28 05:52:10;;;;;;;;;;;6.90;99.90;;;;;;5094447;28;19966;-67
2022/11/28 05:54:36;;;;;;;;;;;6.90;99.90;;;;;;5094219;28;20386;-68
2022/11/28 05:57:01;;;;;;;;;;;6.90;99.90;;;;;;5094384;28;19915;-67
2022/11/28 05:59:27;;;;;;;;;;;6.90;99.90;;;;;;5094478;28;19915;-67
2022/11/28 06:01:52;;;;;;;;;;;6.90;99.90;;;;;;5094064;28;19912;-67
2022/11/28 06:04:18;;;;;;;;;;;6.90;99.90;;;;;;5093784;28;19918;-67
2022/11/28 06:06:44;;;;;;;;;;;7.00;99.90;;;;;;5093945;28;19908;-67
2022/11/28 06:09:09;;;;;;;;;;;7.00;99.90;;;;;;5094138;28;19915;-67
2022/11/28 06:11:34;;;;;;;;;;;7.00;99.90;;;;;;5093891;28;20011;-67
2022/11/28 06:14:01;;;;;;;;;;;7.00;99.90;;;;;;5094171;28;19912;-68
2022/11/28 06:16:28;;;;;;;;;;;7.00;99.90;;;;;;5094143;28;19990;-67
2022/11/28 06:18:54;;;;;;;;;;;7.00;99.90;;;;;;5075797;28;19908;-67
2022/11/28 06:21:20;;;;;;;;;;;7.00;99.90;;;;;;5093793;28;20263;-67
2022/11/28 06:23:46;;;;;;;;;;;7.00;99.90;;;;;;5094080;28;19908;-68
2022/11/28 06:26:13;;;;;;;;;;;7.00;99.90;;;;;;5058946;28;20353;-67
2022/11/28 06:28:39;;;;;;;;;;;6.90;99.90;;;;;;5093742;28;20053;-67
2022/11/28 06:31:10;;;;;;;;;;;6.90;99.90;;;;;;5093538;28;19920;-67
2022/11/28 06:33:36;;;;;;;;;;;6.90;99.90;;;;;;5093688;28;19909;-67
2022/11/28 06:36:02;;;;;;;;;;;6.90;99.90;;;;;;5093698;28;20037;-67
2022/11/28 06:38:28;;;;;;;;;;;6.80;99.90;;;;;;5093628;28;20325;-67
2022/11/28 06:40:58;;;;;;;;;;;6.80;99.90;;;;;;5093663;28;20018;-68
2022/11/28 06:43:23;;;;;;;;;;;6.80;99.90;;;;;;5093682;28;19915;-67
2022/11/28 06:45:49;;;;;;;;;;;6.80;99.90;;;;;;5093832;28;19909;-68
2022/11/28 06:48:14;;;;;;;;;;;6.70;99.90;;;;;;5093519;28;19959;-67
2022/11/28 06:50:39;;;;;;;;;;;6.70;99.90;;;;;;5093440;28;19912;-67
2022/11/28 06:53:05;;;;;;;;;;;6.80;99.90;;;;;;5093813;28;19908;-68
2022/11/28 06:55:31;;;;;;;;;;;6.70;99.90;;;;;;5093779;28;19909;-67
2022/11/28 06:57:56;;;;;;;;;;;6.70;99.90;;;;;;5093495;28;19909;-67
2022/11/28 07:00:22;;;;;;;;;;;6.70;99.90;;;;;;5075621;28;19908;-67
2022/11/28 07:02:47;;;;;;;;;;;6.80;99.90;;;;;;5093653;28;20000;-67
2022/11/28 07:05:15;;;;;;;;;;;6.70;99.90;;;;;;5093658;28;19951;-67
2022/11/28 07:07:41;;;;;;;;;;;6.70;99.90;;;;;;5093363;28;20465;-68
2022/11/28 07:10:07;;;;;;;;;;;6.80;99.90;;;;;;5093521;28;19912;-67
2022/11/28 07:12:32;;;;;;;;;;;6.80;99.90;;;;;;5093602;28;19983;-68
2022/11/28 07:14:58;;;;;;;;;;;6.80;99.90;;;;;;5075365;28;19913;-68
2022/11/28 07:17:23;;;;;;;;;;;6.90;99.90;;;;;;5095975;28;19908;-68
2022/11/28 07:19:48;;;;;;;;;;;6.90;99.90;;;;;;5097365;28;19908;-69
2022/11/28 07:22:14;;;;;;;;;;;6.90;99.90;;;;;;5096992;28;19962;-67
2022/11/28 07:24:39;;;;;;;;;;;6.90;99.90;;;;;;5088944;28;20349;-67
2022/11/28 07:27:05;;;;;;;;;;;6.90;99.90;;;;;;5076348;28;19953;-67
2022/11/28 07:29:35;;;;;;;;;;;6.80;99.90;;;;;;5090955;28;19920;-67
2022/11/28 07:32:01;;;;;;;;;;;6.80;99.90;;;;;;5096569;28;19970;-67
2022/11/28 07:34:27;;;;;;;;;;;6.70;99.90;;;;;;5085529;28;19912;-67
2022/11/28 07:36:52;;;;;;;;;;;6.70;99.90;;;;;;5080114;28;19972;-67
2022/11/28 07:39:18;;;;;;;;;;;6.80;99.90;;;;;;5095935;28;19916;-67
2022/11/28 07:41:43;;;;;;;;;;;6.80;99.90;;;;;;5086925;28;20011;-67
2022/11/28 07:44:10;;;;;;;;;;;6.70;99.90;;;;;;5096333;28;19912;-67
2022/11/28 07:46:35;;;;;;;;;;;6.70;99.90;;;;;;5094219;28;19913;-67
2022/11/28 07:49:01;;;;;;;;;;;6.80;99.90;;;;;;5090665;28;19919;-67
2022/11/28 07:51:28;;;;;;;;;;;6.80;99.90;;;;;;5072037;28;20366;-66
2022/11/28 07:53:54;;;;;;;;;;;6.70;99.90;;;;;;5093792;28;19966;-67
2022/11/28 07:56:21;;;;;;;;;;;6.80;99.90;;;;;;5087687;28;19944;-66
2022/11/28 07:58:47;;;;;;;;;;;6.80;99.90;;;;;;5095230;28;19912;-67
2022/11/28 08:01:14;;;;;;;;;;;6.80;99.90;;;;;;5094228;28;20354;-67
2022/11/28 08:03:40;;;;;;;;;;;6.80;99.90;;;;;;5096384;28;19909;-66
2022/11/28 08:06:06;;;;;;;;;;;6.80;99.90;;;;;;5096157;28;20251;-67
2022/11/28 08:08:32;;;;;;;;;;;6.80;99.90;;;;;;5095302;28;19953;-67
2022/11/28 08:10:59;;;;;;;;;;;6.90;99.90;;;;;;5077619;28;19921;-67
2022/11/28 08:13:25;;;;;;;;;;;6.90;99.90;;;;;;5091061;28;20427;-67
2022/11/28 08:15:50;;;;;;;;;;;6.90;99.90;;;;;;5095866;28;19912;-67
2022/11/28 08:18:16;;;;;;;;;;;7.00;99.90;;;;;;5076506;28;20370;-67
2022/11/28 08:20:41;;;;;;;;;;;7.10;99.90;;;;;;5095323;28;19915;-68
2022/11/28 08:23:07;;;;;;;;;;;7.10;99.90;;;;;;5094996;28;19919;-69
2022/11/28 08:25:32;;;;;;;;;;;7.10;99.90;;;;;;5094723;28;20434;-69
2022/11/28 08:27:58;;;;;;;;;;;7.20;99.90;;;;;;5095804;28;20341;-69
2022/11/28 08:30:23;;;;;;;;;;;7.20;99.90;;;;;;5093361;28;19939;-69
2022/11/28 08:32:49;;;;;;;;;;;7.20;99.90;;;;;;5095802;28;19963;-69
2022/11/28 08:35:15;;;;;;;;;;;7.30;99.90;;;;;;5094857;28;20019;-71
2022/11/28 08:37:40;;;;;;;;;;;7.30;99.90;;;;;;5095309;28;19912;-71
2022/11/28 08:40:06;;;;;;;;;;;7.30;99.90;;;;;;5090604;28;20004;-71
2022/11/28 08:42:31;;;;;;;;;;;7.30;99.90;;;;;;5095709;28;20399;-71
2022/11/28 08:44:57;;;;;;;;;;;7.40;99.90;;;;;;5088337;28;19935;-70
2022/11/28 08:47:22;;;;;;;;;;;7.40;99.90;;;;;;5075339;28;19908;-70
2022/11/28 08:49:48;;;;;;;;;;;7.50;99.90;;;;;;5070893;28;19926;-72
2022/11/28 08:52:13;;;;;;;;;;;7.50;99.90;;;;;;5094981;28;19912;-71
2022/11/28 08:54:40;;;;;;;;;;;7.60;99.90;;;;;;5089008;28;19965;-71
2022/11/28 08:57:05;;;;;;;;;;;7.70;99.90;;;;;;5114710;28;19908;-71
2022/11/28 08:59:31;;;;;;;;;;;7.70;99.90;;;;;;5092037;28;19935;-71
2022/11/28 09:01:56;;;;;;;;;;;7.70;99.90;;;;;;5094477;28;20327;-69
2022/11/28 09:04:22;;;;;;;;;;;7.80;99.90;;;;;;5083846;28;19960;-70
2022/11/28 09:06:48;;;;;;;;;;;7.80;99.90;;;;;;5084460;28;19917;-70
2022/11/28 09:09:14;;;;;;;;;;;7.80;99.90;;;;;;5086576;28;20389;-69
2022/11/28 09:11:40;;;;;;;;;;;7.90;99.90;;;;;;5091703;28;20289;-69
2022/11/28 09:14:05;;;;;;;;;;;7.90;99.90;;;;;;5094212;28;19912;-70
2022/11/28 09:16:31;;;;;;;;;;;7.90;99.90;;;;;;5087185;28;19912;-69
2022/11/28 09:18:57;;;;;;;;;;;7.90;99.90;;;;;;5094230;28;19919;-69
2022/11/28 09:21:23;;;;;;;;;;;7.90;99.90;;;;;;5098488;28;20307;-69
2022/11/28 09:23:49;;;;;;;;;;;7.90;99.90;;;;;;5094093;28;19999;-69
2022/11/28 09:26:17;;;;;;;;;;;7.90;99.90;;;;;;5093858;28;19912;-69
2022/11/28 09:28:43;;;;;;;;;;;7.90;99.90;;;;;;5094970;28;19913;-69
2022/11/28 09:31:11;;;;;;;;;;;8.00;99.90;;;;;;5093890;28;20023;-68
2022/11/28 09:33:36;;;;;;;;;;;8.00;99.90;;;;;;5077510;28;19912;-69
2022/11/28 09:36:04;;;;;;;;;;;8.10;99.90;;;;;;5096120;28;20288;-68
2022/11/28 09:38:29;;;;;;;;;;;8.10;99.90;;;;;;5099177;28;19947;-69
2022/11/28 09:40:55;;;;;;;;;;;8.10;99.90;;;;;;5075067;28;19931;-69
2022/11/28 09:43:26;;;;;;;;;;;8.10;99.90;;;;;;5093906;28;19908;-69
2022/11/28 09:45:53;;;;;;;;;;;8.20;99.90;;;;;;5093409;28;19911;-69
2022/11/28 09:48:38;;;;;;;;;;;8.10;99.90;;;;;;5097623;28;19916;-69
2022/11/28 09:51:12;;;;;;;;;;;8.10;99.90;;;;;;5092734;28;20001;-69
2022/11/28 09:53:42;;;;;;;;;;;8.10;99.90;;;;;;5101305;28;19919;-70
2022/11/28 09:56:10;;;;;;;;;;;8.20;99.90;;;;;;5112130;28;19986;-68
2022/11/28 09:58:57;;;;;;;;;;;8.20;99.90;;;;;;5097716;28;19912;-68
2022/11/28 10:01:43;;;;;;;;;;;8.20;99.90;;;;;;5100850;28;20366;-69
2022/11/28 10:04:13;;;;;;;;;;;8.10;99.90;;;;;;5113007;28;20010;-69
2022/11/28 10:06:43;;;;;;;;;;;8.30;99.90;;;;;;5101106;28;19912;-69
2022/11/28 10:09:18;;;;;;;;;;;8.20;99.90;;;;;;5093263;28;19912;-69
2022/11/28 10:11:53;;;;;;;;;;;8.30;99.90;;;;;;5093668;28;20323;-69
2022/11/28 10:14:38;;;;;;;;;;;8.30;99.90;;;;;;5093755;28;19916;-69
2022/11/28 10:17:24;;;;;;;;;;;8.40;99.90;;;;;;5093605;28;19915;-69
2022/11/28 10:19:52;;;;;;;;;;;8.40;99.90;;;;;;5094604;28;20297;-69
2022/11/28 10:22:21;;;;;;;;;;;8.40;99.90;;;;;;5104639;28;20319;-70
2022/11/28 10:24:49;;;;;;;;;;;8.40;99.90;;;;;;5094699;28;19911;-68
2022/11/28 10:27:15;;;;;;;;;;;8.40;99.90;;;;;;5092578;28;19908;-68
2022/11/28 10:29:45;;;;;;;;;;;8.50;99.90;;;;;;5096909;28;19965;-70
2022/11/28 10:32:14;;;;;;;;;;;8.60;99.90;;;;;;5093317;28;19919;-70
2022/11/28 10:34:42;;;;;;;;;;;8.50;99.90;;;;;;5095419;28;19927;-67
2022/11/28 10:37:12;;;;;;;;;;;8.40;99.90;;;;;;5102749;28;19965;-67
2022/11/28 10:39:40;;;;;;;;;;;8.40;99.90;;;;;;5095767;28;20357;-67
2022/11/28 10:42:13;;;;;;;;;;;8.50;99.90;;;;;;5093833;28;19955;-68
2022/11/28 10:44:45;;;;;;;;;;;8.50;99.90;;;;;;5093601;28;19912;-67
2022/11/28 10:47:20;;;;;;;;;;;8.60;99.90;;;;;;5104213;28;19919;-68
2022/11/28 10:50:05;;;;;;;;;;;8.50;99.90;;;;;;5095993;28;19923;-68
2022/11/28 10:52:36;;;;;;;;;;;8.50;99.90;;;;;;5089257;28;19912;-67
2022/11/28 10:55:21;;;;;;;;;;;8.50;99.90;;;;;;5097203;28;19912;-68
2022/11/28 11:00:33;;;;;;;;;;;8.50;99.90;;;;;;5071113;28;19919;-66
2022/11/28 11:03:01;;;;;;;;;;;8.50;99.90;;;;;;5070491;28;19913;-66
2022/11/28 11:05:27;;;;;;;;;;;8.60;99.90;;;;;;5069511;28;19908;-69
2022/11/28 11:07:54;;;;;;;;;;;8.60;99.90;;;;;;5056686;28;20421;-70
2022/11/28 11:10:38;;;;;;;;;;;8.60;99.90;;;;;;5070982;28;19917;-66
2022/11/28 11:13:13;;;;;;;;;;;8.60;99.90;;;;;;5070264;28;20030;-67
2022/11/28 11:15:38;;;;;;;;;;;8.60;99.90;;;;;;5069028;28;19913;-67
2022/11/28 11:18:04;;;;;;;;;;;8.70;99.90;;;;;;5070077;28;19913;-68
2022/11/28 11:20:32;;;;;;;;;;;8.70;99.90;;;;;;5070270;28;20366;-68
2022/11/28 11:22:59;;;;;;;;;;;8.80;99.90;;;;;;5070666;28;19912;-69
2022/11/28 11:25:26;;;;;;;;;;;8.80;99.90;;;;;;5069976;28;19913;-68
2022/11/28 11:27:53;;;;;;;;;;;8.80;99.90;;;;;;5069760;28;19913;-68
2022/11/28 11:30:41;;;;;;;;;;;8.80;99.90;;;;;;5070015;28;20015;-68
2022/11/28 11:33:12;;;;;;;;;;;8.80;99.90;;;;;;5070411;28;19915;-68
2022/11/28 11:35:46;;;;;;;;;;;8.70;99.90;;;;;;5070257;28;20419;-67
2022/11/28 11:38:15;;;;;;;;;;;8.70;99.90;;;;;;5069281;28;19912;-68
2022/11/28 11:40:41;;;;;;;;;;;8.70;99.90;;;;;;5069549;28;19920;-67
2022/11/28 11:43:22;;;;;;;;;;;8.60;99.90;;;;;;5069315;28;20390;-67
2022/11/28 11:46:02;;;;;;;;;;;8.60;99.90;;;;;;5068970;28;20042;-67
2022/11/28 11:48:45;;;;;;;;;;;8.60;99.90;;;;;;5069350;28;20046;-68
2022/11/28 11:51:27;;;;;;;;;;;8.60;99.90;;;;;;5084964;28;19912;-68
2022/11/28 11:54:13;;;;;;;;;;;8.50;99.90;;;;;;5069703;28;19912;-68
2022/11/28 11:56:41;;;;;;;;;;;8.50;99.90;;;;;;5069158;28;19944;-67
2022/11/28 11:59:13;;;;;;;;;;;8.60;99.90;;;;;;5078208;28;20393;-67
2022/11/28 12:01:39;;;;;;;;;;;8.60;99.90;;;;;;5071584;28;20286;-66
2022/11/28 12:04:05;;;;;;;;;;;8.50;99.90;;;;;;5089903;28;19915;-68
2022/11/28 12:06:34;;;;;;;;;;;8.50;99.90;;;;;;5089223;28;19908;-68
2022/11/28 12:09:10;;;;;;;;;;;8.50;99.90;;;;;;5067918;28;19909;-67
2022/11/28 12:11:39;;;;;;;;;;;8.50;99.90;;;;;;5058027;28;20278;-67
2022/11/28 12:14:24;;;;;;;;;;;8.50;99.90;;;;;;5056239;28;19948;-67
2022/11/28 12:17:09;;;;;;;;;;;8.50;99.90;;;;;;5067512;28;19958;-69
2022/11/28 12:19:46;;;;;;;;;;;8.60;99.90;;;;;;5075615;28;19912;-69
2022/11/28 12:22:19;;;;;;;;;;;8.60;99.90;;;;;;5075846;28;20373;-69
2022/11/28 12:24:53;;;;;;;;;;;8.60;99.90;;;;;;5075689;28;19919;-69
2022/11/28 12:27:38;;;;;;;;;;;8.60;99.90;;;;;;5074388;28;19962;-69
2022/11/28 12:30:24;;;;;;;;;;;8.60;99.90;;;;;;5073000;28;20011;-68
2022/11/28 12:32:59;;;;;;;;;;;8.70;99.90;;;;;;5072788;28;20391;-69
2022/11/28 12:38:35;;;;;;;;;;;8.70;99.90;;;;;;5070629;28;20305;-66
2022/11/28 12:41:05;;;;;;;;;;;8.70;99.90;;;;;;5070324;28;20331;-68
2022/11/28 12:43:45;;;;;;;;;;;8.70;99.90;;;;;;5070836;28;20283;-68
2022/11/28 12:46:18;;;;;;;;;;;8.70;99.90;;;;;;5070884;28;19916;-68
2022/11/28 12:49:04;;;;;;;;;;;8.70;99.90;;;;;;5086638;28;20415;-69
2022/11/28 12:51:34;;;;;;;;;;;8.70;99.90;;;;;;5050667;28;20391;-67
2022/11/28 12:54:06;;;;;;;;;;;8.70;99.90;;;;;;5050786;28;20371;-68
2022/11/28 12:56:51;;;;;;;;;;;8.70;99.90;;;;;;5086312;28;19932;-67
2022/11/28 12:59:24;;;;;;;;;;;8.70;99.90;;;;;;5069672;28;19971;-68
2022/11/28 13:02:10;;;;;;;;;;;8.70;99.90;;;;;;5070389;28;19958;-67
2022/11/28 13:04:55;;;;;;;;;;;8.70;99.90;;;;;;5067922;28;20007;-67
2022/11/28 13:07:40;;;;;;;;;;;8.70;99.90;;;;;;5069963;28;19927;-68
2022/11/28 13:10:13;;;;;;;;;;;8.80;99.90;;;;;;5069658;28;21039;-67
2022/11/28 13:12:58;;;;;;;;;;;8.80;99.90;;;;;;5076245;28;20362;-67
2022/11/28 13:15:44;;;;;;;;;;;8.80;99.90;;;;;;5069414;28;20282;-70
2022/11/28 13:18:18;;;;;;;;;;;8.70;99.90;;;;;;5056233;28;19939;-67
2022/11/28 13:20:50;;;;;;;;;;;8.70;99.90;;;;;;5070194;28;19908;-69
2022/11/28 13:23:27;;;;;;;;;;;8.70;99.90;;;;;;5069916;28;20032;-68
2022/11/28 13:26:04;;;;;;;;;;;8.60;99.90;;;;;;5064257;28;20011;-65
2022/11/28 13:28:37;;;;;;;;;;;8.60;99.90;;;;;;5068249;28;19920;-65
2022/11/28 13:31:05;;;;;;;;;;;8.60;99.90;;;;;;5068666;28;19922;-67
2022/11/28 13:33:38;;;;;;;;;;;8.60;99.90;;;;;;5068629;28;19935;-66
2022/11/28 13:36:06;;;;;;;;;;;8.70;99.90;;;;;;5070768;28;19958;-67
2022/11/28 13:38:43;;;;;;;;;;;8.60;99.90;;;;;;5089534;28;19912;-67
2022/11/28 13:41:13;;;;;;;;;;;8.60;99.90;;;;;;5089663;28;20011;-67
2022/11/28 13:43:58;;;;;;;;;;;8.70;99.90;;;;;;5089799;28;19912;-67
2022/11/28 13:46:24;;;;;;;;;;;8.60;99.90;;;;;;5088627;28;19939;-67
2022/11/28 13:48:52;;;;;;;;;;;8.60;99.90;;;;;;5079458;28;20381;-67
2022/11/28 13:51:21;;;;;;;;;;;8.60;99.90;;;;;;5076021;28;20025;-67
2022/11/28 13:53:48;;;;;;;;;;;8.60;99.90;;;;;;5075883;28;19913;-66
2022/11/28 13:56:22;;;;;;;;;;;8.60;99.90;;;;;;5075240;28;20475;-68
2022/11/28 13:59:03;;;;;;;;;;;8.60;99.90;;;;;;5075976;28;20015;-67
2022/11/28 14:01:30;;;;;;;;;;;8.50;99.90;;;;;;5075922;28;20047;-68
2022/11/28 14:04:00;;;;;;;;;;;8.50;99.90;;;;;;5074895;28;20003;-68
2022/11/28 14:06:28;;;;;;;;;;;8.40;99.90;;;;;;5074509;28;20010;-67
2022/11/28 14:09:13;;;;;;;;;;;8.40;99.90;;;;;;5075369;28;19954;-66
2022/11/28 14:11:49;;;;;;;;;;;8.30;99.90;;;;;;5057683;28;19913;-68
2022/11/28 14:14:31;;;;;;;;;;;8.40;99.90;;;;;;5074287;28;20277;-67
2022/11/28 14:17:03;;;;;;;;;;;8.40;99.90;;;;;;5074363;28;19912;-67
2022/11/28 14:19:49;;;;;;;;;;;8.30;99.90;;;;;;5075383;28;19963;-67
2022/11/28 14:22:34;;;;;;;;;;;8.30;99.90;;;;;;5074619;28;20634;-66
2022/11/28 14:25:02;;;;;;;;;;;8.30;99.90;;;;;;5055451;28;20034;-66
2022/11/28 14:27:30;;;;;;;;;;;8.30;99.90;;;;;;5056617;28;19915;-66
2022/11/28 14:29:56;;;;;;;;;;;8.40;99.90;;;;;;5075364;28;20451;-67
2022/11/28 14:32:29;;;;;;;;;;;8.30;99.90;;;;;;5075628;28;20370;-68
2022/11/28 14:34:54;;;;;;;;;;;8.40;99.90;;;;;;5065766;28;19951;-68
2022/11/28 14:37:26;;;;;;;;;;;8.30;99.90;;;;;;5074501;28;19959;-68
2022/11/28 14:39:52;;;;;;;;;;;8.30;99.90;;;;;;5075657;28;19913;-67
2022/11/28 14:44:56;;;;;;;;;;;8.30;99.90;;;;;;5070832;28;19913;-67
2022/11/28 14:52:43;;;;;;;;;;;8.30;99.90;;;;;;5069025;28;19917;-68
2022/11/28 14:57:51;;;;;;;;;;;8.30;99.90;;;;;;5070407;28;19923;-69
2022/11/28 15:00:22;;;;;;;;;;;8.30;99.90;;;;;;5069355;28;19916;-69
2022/11/28 15:02:54;;;;;;;;;;;8.30;99.90;;;;;;5069831;28;20355;-69
2022/11/28 15:05:29;;;;;;;;;;;8.30;99.90;;;;;;5070283;28;20370;-67
2022/11/28 15:08:15;;;;;;;;;;;8.20;99.90;;;;;;5070847;28;19915;-68